Terminal Aerodrome Forecast
Issued by NWS

Home | Current Version | Previous Version | Text Only | Print | Product List | Glossary Off
Versions: 1 2 3 4 5 6 7 8 9 10 11 12 13 14 15 16 17 18 19 20 21 22 23 24 25 26 27 28 29

000
FTUS45 KRIW 062328
TAFCPR
TAF
KCPR 062328Z 0700/0724 25016G26KT P6SM SCT100 BKN200
     FM070600 22018G28KT P6SM BKN150
     FM071500 24026G34KT P6SM FEW150=

USA.gov is the U.S. government's official web portal to all federal, state and local government web resources and services.